Terminal Aerodrome Forecast
Issued by NWS Billings, MT

Home | Current Version | Previous Version | Graphics & Text | Print | Product List | Glossary On
Versions: 1 2 3 4 5 6 7 8 9 10 11 12 13 14 15
000
FTUS45 KBYZ 300530
TAFMLS
TAF
KMLS 300530Z 3006/3106 30009KT P6SM BKN080
     FM301000 27006KT P6SM VCFG SCT002
     FM301600 VRB06KT P6SM FEW010 SCT030
     FM302000 08008KT P6SM SKC=

USA.gov is the U.S. government's official web portal to all federal, state and local government web resources and services.